createdAt,value
2022-11-22T00:00:35.327Z,6.32
2022-11-22T00:03:02.479Z,5.35
2022-11-22T00:05:29.664Z,3.78
2022-11-22T00:07:56.804Z,3.53
2022-11-22T00:10:24.182Z,5.32
2022-11-22T00:12:51.412Z,4.97
2022-11-22T00:15:18.764Z,4.20
2022-11-22T00:17:45.993Z,3.63
2022-11-22T00:20:13.785Z,5.85
2022-11-22T00:22:44.469Z,3.38
2022-11-22T00:25:12.864Z,6.17
2022-11-22T00:27:40.329Z,3.38
2022-11-22T00:30:08.579Z,7.30
2022-11-22T00:32:35.892Z,6.05
2022-11-22T00:35:03.478Z,5.28
2022-11-22T00:37:30.597Z,7.50
2022-11-22T00:39:57.840Z,7.65
2022-11-22T00:42:25.762Z,12.45
2022-11-22T00:44:52.942Z,5.10
2022-11-22T00:47:20.125Z,2.85
2022-11-22T00:49:47.224Z,8.65
2022-11-22T00:52:14.619Z,6.22
2022-11-22T00:54:41.934Z,2.83
2022-11-22T00:57:09.110Z,3.25
2022-11-22T00:59:36.227Z,6.55
2022-11-22T01:02:03.519Z,4.32
2022-11-22T01:04:30.683Z,3.75
2022-11-22T01:06:57.806Z,5.00
2022-11-22T01:09:25.375Z,2.80
2022-11-22T01:11:52.836Z,4.20
2022-11-22T01:14:20.783Z,6.88
2022-11-22T01:16:48.482Z,8.73
2022-11-22T01:19:15.946Z,3.70
2022-11-22T01:21:43.146Z,6.05
2022-11-22T01:24:10.579Z,4.72
2022-11-22T01:26:37.695Z,4.70
2022-11-22T01:29:05.273Z,4.32
2022-11-22T01:31:32.706Z,2.22
2022-11-22T01:34:00.016Z,2.88
2022-11-22T01:36:27.854Z,7.18
2022-11-22T01:38:55.307Z,4.47
2022-11-22T01:41:23.133Z,4.38
2022-11-22T01:43:50.260Z,2.35
2022-11-22T01:46:37.394Z,5.85
2022-11-22T01:49:14.507Z,2.88
2022-11-22T01:51:44.692Z,2.90
2022-11-22T01:54:16.854Z,2.63
2022-11-22T01:56:48.754Z,6.32
2022-11-22T01:59:19.621Z,1.70
2022-11-22T02:01:46.880Z,1.73
2022-11-22T02:04:17.468Z,4.47
2022-11-22T02:07:03.719Z,5.43
2022-11-22T02:09:32.807Z,6.88
2022-11-22T02:12:03.829Z,4.63
2022-11-22T02:14:31.484Z,3.58
2022-11-22T02:16:58.572Z,4.65
2022-11-22T02:19:42.548Z,1.92
2022-11-22T02:22:40.643Z,0.60
2022-11-22T02:25:37.534Z,3.15
2022-11-22T02:28:05.090Z,4.07
2022-11-22T02:30:32.178Z,3.30
2022-11-22T02:32:59.315Z,2.45
2022-11-22T02:35:28.752Z,3.47
2022-11-22T02:38:12.987Z,2.00
2022-11-22T02:40:49.427Z,2.70
2022-11-22T02:43:32.873Z,6.00
2022-11-22T02:46:15.901Z,4.00
2022-11-22T02:48:44.241Z,4.20
2022-11-22T02:51:16.745Z,4.25
2022-11-22T02:53:44.374Z,3.20
2022-11-22T02:56:11.462Z,6.05
2022-11-22T02:58:38.657Z,2.78
2022-11-22T03:01:06.018Z,4.47
2022-11-22T03:03:33.594Z,2.05
2022-11-22T03:06:02.426Z,5.78
2022-11-22T03:08:29.879Z,4.07
2022-11-22T03:11:00.580Z,5.13
2022-11-22T03:13:27.759Z,2.25
2022-11-22T03:15:54.896Z,3.42
2022-11-22T03:18:22.041Z,2.22
2022-11-22T03:20:49.168Z,3.45
2022-11-22T03:23:16.577Z,2.03
2022-11-22T03:25:43.697Z,5.82
2022-11-22T03:28:11.461Z,4.25
2022-11-22T03:30:42.387Z,3.63
2022-11-22T03:33:10.000Z,1.95
2022-11-22T03:35:37.390Z,3.45
2022-11-22T03:38:04.797Z,5.00
2022-11-22T03:40:32.192Z,4.63
2022-11-22T03:43:03.394Z,7.82
2022-11-22T03:45:31.002Z,4.10
2022-11-22T03:47:58.221Z,3.08
2022-11-22T03:50:25.903Z,6.78
2022-11-22T03:52:52.991Z,3.88
2022-11-22T03:55:20.316Z,3.03
2022-11-22T03:57:47.500Z,4.00
2022-11-22T04:00:15.216Z,6.00
2022-11-22T04:02:44.022Z,5.40
2022-11-22T04:05:11.133Z,1.80
2022-11-22T04:07:38.333Z,3.10
2022-11-22T04:10:06.476Z,1.20
2022-11-22T04:12:33.843Z,3.28
2022-11-22T04:15:07.015Z,2.15
2022-11-22T04:17:40.865Z,1.30
2022-11-22T04:20:32.551Z,3.15
2022-11-22T04:23:07.592Z,4.23
2022-11-22T04:25:36.155Z,2.67
2022-11-22T04:28:04.292Z,2.83
2022-11-22T04:30:50.544Z,1.77
2022-11-22T04:33:18.087Z,7.47
2022-11-22T04:35:45.686Z,3.58
2022-11-22T04:38:13.670Z,2.38
2022-11-22T04:40:40.978Z,3.45
2022-11-22T04:43:28.460Z,2.58
2022-11-22T04:45:55.534Z,2.72
2022-11-22T04:48:22.670Z,4.15
2022-11-22T04:51:08.048Z,2.58
2022-11-22T04:53:35.327Z,1.70
2022-11-22T04:56:02.356Z,3.42
2022-11-22T04:58:29.580Z,3.78
2022-11-22T05:00:56.739Z,7.30
2022-11-22T05:03:23.926Z,4.18
2022-11-22T05:05:51.126Z,1.10
2022-11-22T05:08:18.333Z,3.80
2022-11-22T05:11:02.221Z,5.70
2022-11-22T05:13:38.233Z,3.53
2022-11-22T05:16:07.599Z,4.65
2022-11-22T05:18:35.155Z,3.38
2022-11-22T05:21:07.323Z,5.22
2022-11-22T05:23:52.839Z,2.17
2022-11-22T05:26:21.043Z,3.08
2022-11-22T05:28:48.189Z,5.60
2022-11-22T05:31:24.168Z,2.22
2022-11-22T05:33:53.206Z,3.60
2022-11-22T05:36:21.544Z,1.95
2022-11-22T05:38:48.690Z,1.65
2022-11-22T05:41:16.883Z,2.75
2022-11-22T05:43:44.608Z,3.60
2022-11-22T05:46:23.554Z,3.33
2022-11-22T05:48:52.626Z,2.72
2022-11-22T05:51:22.707Z,6.60
2022-11-22T05:53:50.010Z,3.63
2022-11-22T05:56:23.004Z,1.77
2022-11-22T05:58:51.026Z,4.57
2022-11-22T06:01:20.643Z,1.92
2022-11-22T06:03:48.377Z,2.13
2022-11-22T06:06:16.197Z,1.27
2022-11-22T06:08:46.912Z,2.45
2022-11-22T06:11:25.633Z,2.38
2022-11-22T06:13:58.605Z,1.08
2022-11-22T06:16:27.042Z,1.75
2022-11-22T06:18:54.915Z,4.47
2022-11-22T06:21:24.705Z,2.97
2022-11-22T06:23:53.942Z,2.42
2022-11-22T06:26:22.714Z,4.00
2022-11-22T06:28:50.295Z,1.15
2022-11-22T06:31:20.107Z,1.20
2022-11-22T06:33:47.664Z,2.08
2022-11-22T06:36:21.005Z,2.95
2022-11-22T06:38:48.414Z,1.67
2022-11-22T06:41:17.973Z,1.73
2022-11-22T06:43:49.004Z,4.93
2022-11-22T06:46:21.738Z,4.57
2022-11-22T06:51:22.318Z,4.72
2022-11-22T06:53:50.447Z,3.17
2022-11-22T06:56:22.056Z,1.20
2022-11-22T06:58:51.107Z,1.70
2022-11-22T07:01:26.481Z,2.55
2022-11-22T07:03:58.736Z,1.75
2022-11-22T07:06:34.460Z,3.10
2022-11-22T07:09:03.596Z,2.17
2022-11-22T07:11:32.446Z,5.45
2022-11-22T07:14:07.793Z,2.65
2022-11-22T07:16:37.391Z,2.50
2022-11-22T07:19:05.145Z,1.92
2022-11-22T07:21:32.650Z,4.32
2022-11-22T07:24:00.241Z,4.43
2022-11-22T07:26:28.629Z,0.85
2022-11-22T07:28:56.199Z,5.03
2022-11-22T07:31:23.572Z,3.47
2022-11-22T07:33:50.838Z,4.07
2022-11-22T07:36:22.911Z,2.67
2022-11-22T07:38:50.765Z,3.55
2022-11-22T07:41:19.095Z,2.72
2022-11-22T07:43:47.227Z,2.00
2022-11-22T07:46:29.302Z,5.45
2022-11-22T07:48:56.958Z,2.90
2022-11-22T07:51:24.548Z,3.15
2022-11-22T07:53:51.685Z,1.92
2022-11-22T07:56:19.134Z,3.88
2022-11-22T07:58:46.406Z,5.18
2022-11-22T08:01:16.704Z,6.82
2022-11-22T08:03:45.005Z,3.33
2022-11-22T08:06:13.183Z,2.95
2022-11-22T08:08:40.648Z,3.13
2022-11-22T08:11:07.983Z,4.85
2022-11-22T08:13:36.007Z,4.85
2022-11-22T08:16:06.412Z,2.85
2022-11-22T08:18:34.746Z,5.32
2022-11-22T08:21:06.609Z,7.13
2022-11-22T08:23:34.106Z,3.42
2022-11-22T08:26:01.327Z,5.10
2022-11-22T08:28:28.566Z,5.38
2022-11-22T08:31:22.323Z,6.20
2022-11-22T08:33:54.244Z,7.72
2022-11-22T08:36:21.759Z,5.63
2022-11-22T08:38:48.885Z,4.03
2022-11-22T08:41:17.120Z,5.97
2022-11-22T08:43:44.703Z,2.20
2022-11-22T08:46:12.062Z,4.57
2022-11-22T08:48:39.239Z,2.50
2022-11-22T08:51:09.080Z,4.57
2022-11-22T08:53:42.231Z,2.00
2022-11-22T08:56:12.674Z,4.72
2022-11-22T08:58:40.239Z,2.75
2022-11-22T09:01:09.715Z,5.95
2022-11-22T09:03:37.917Z,3.92
2022-11-22T09:09:22.173Z,3.42
2022-11-22T09:11:47.091Z,4.30
2022-11-22T09:14:14.227Z,6.15
2022-11-22T09:16:41.356Z,8.07
2022-11-22T09:19:08.447Z,2.88
2022-11-22T09:21:35.540Z,1.48
2022-11-22T09:24:02.695Z,1.63
2022-11-22T09:26:30.258Z,3.03
2022-11-22T09:28:57.549Z,2.28
2022-11-22T09:31:25.088Z,1.98
2022-11-22T09:33:52.508Z,4.63
2022-11-22T09:36:26.580Z,3.13
2022-11-22T09:38:54.444Z,4.00
2022-11-22T09:41:52.210Z,3.55
2022-11-22T09:44:41.249Z,1.90
2022-11-22T09:47:08.355Z,2.15
2022-11-22T09:49:55.694Z,1.73
2022-11-22T09:52:37.935Z,3.03
2022-11-22T09:55:32.072Z,4.82
2022-11-22T09:58:24.022Z,11.63
2022-11-22T10:00:52.792Z,2.08
2022-11-22T10:04:01.260Z,1.52
2022-11-22T10:06:34.697Z,1.98
2022-11-22T10:09:27.794Z,4.35
2022-11-22T10:11:57.582Z,2.00
2022-11-22T10:14:38.296Z,5.43
2022-11-22T10:17:25.605Z,2.83
2022-11-22T10:20:19.590Z,1.63
2022-11-22T10:22:47.914Z,2.25
2022-11-22T10:25:19.207Z,7.10
2022-11-22T10:28:00.398Z,2.80
2022-11-22T10:30:33.673Z,3.47
2022-11-22T10:33:15.365Z,5.28
2022-11-22T10:35:58.870Z,4.50
2022-11-22T10:38:41.218Z,2.97
2022-11-22T10:41:23.955Z,5.45
2022-11-22T10:44:17.001Z,3.00
2022-11-22T10:46:57.289Z,1.45
2022-11-22T10:49:33.553Z,3.55
2022-11-22T10:52:24.787Z,2.97
2022-11-22T10:55:16.122Z,3.42
2022-11-22T10:57:57.404Z,3.33
2022-11-22T11:00:26.214Z,3.78
2022-11-22T11:03:21.208Z,8.00
2022-11-22T11:06:21.620Z,2.50
2022-11-22T11:09:54.918Z,8.52
2022-11-22T11:11:52.229Z,11.05
2022-11-22T11:14:33.050Z,6.32
2022-11-22T11:17:02.525Z,3.60
2022-11-22T11:19:34.161Z,26.75
2022-11-22T11:22:08.545Z,35.58
2022-11-22T11:24:40.033Z,13.95
2022-11-22T11:27:09.770Z,18.25
2022-11-22T11:29:45.499Z,16.25
2022-11-22T11:32:16.658Z,15.40
2022-11-22T11:34:54.974Z,21.67
2022-11-22T11:37:29.584Z,7.43
2022-11-22T11:39:56.764Z,7.05
2022-11-22T11:42:28.286Z,6.60
2022-11-22T11:45:15.856Z,4.30
2022-11-22T11:47:42.940Z,6.45
2022-11-22T11:50:24.596Z,5.65
2022-11-22T11:53:05.315Z,9.18
2022-11-22T11:55:35.461Z,3.42
2022-11-22T11:58:16.305Z,14.05
2022-11-22T12:00:45.734Z,14.80
2022-11-22T12:03:19.630Z,87.20
2022-11-22T12:05:46.749Z,100.68
2022-11-22T12:08:29.622Z,119.43
2022-11-22T12:11:05.441Z,97.70
2022-11-22T12:14:12.440Z,30.00
2022-11-22T12:16:51.147Z,7.68
2022-11-22T12:22:48.127Z,14.25
2022-11-22T12:25:32.609Z,5.13
2022-11-22T12:28:10.192Z,11.75
2022-11-22T12:30:40.174Z,4.07
2022-11-22T12:33:18.275Z,2.13
2022-11-22T12:35:46.562Z,5.43
2022-11-22T12:38:21.469Z,4.97
2022-11-22T12:40:55.208Z,7.60
2022-11-22T12:43:24.736Z,9.55
2022-11-22T12:46:26.272Z,21.20
2022-11-22T12:48:23.023Z,7.28
2022-11-22T12:48:58.653Z,18.52
2022-11-22T12:51:49.325Z,18.55
2022-11-22T12:54:24.166Z,7.28
2022-11-22T12:56:58.366Z,8.65
2022-11-22T12:59:38.761Z,17.45
2022-11-22T13:02:20.862Z,15.80
2022-11-22T13:05:03.217Z,28.73
2022-11-22T13:10:35.820Z,12.07
2022-11-22T13:13:04.975Z,11.23
2022-11-22T13:15:36.655Z,9.73
2022-11-22T13:18:09.803Z,11.52
2022-11-22T13:20:45.201Z,12.75
2022-11-22T13:23:50.109Z,13.98
2022-11-22T13:26:52.452Z,12.43
2022-11-22T13:29:26.003Z,11.27
2022-11-22T13:32:06.787Z,6.72
2022-11-22T13:34:36.323Z,11.70
2022-11-22T13:37:17.105Z,5.28
2022-11-22T13:39:47.578Z,5.88
2022-11-22T13:42:34.946Z,9.45
2022-11-22T13:45:01.981Z,7.82
2022-11-22T13:47:34.836Z,7.13
2022-11-22T13:50:01.966Z,4.10
2022-11-22T13:52:52.988Z,3.92
2022-11-22T13:55:34.848Z,3.83
2022-11-22T13:58:26.301Z,1.10
2022-11-22T14:00:59.978Z,2.55
2022-11-22T14:03:35.130Z,23.45
2022-11-22T14:06:23.223Z,3.05
2022-11-22T14:09:28.837Z,6.70
2022-11-22T14:12:04.974Z,8.23
2022-11-22T14:15:08.649Z,5.85
2022-11-22T14:17:59.324Z,19.52
2022-11-22T14:20:55.832Z,13.82
2022-11-22T14:23:49.351Z,6.38
2022-11-22T14:26:41.762Z,22.23
2022-11-22T14:29:49.392Z,5.68
2022-11-22T14:32:23.161Z,12.68
2022-11-22T14:35:05.247Z,6.68
2022-11-22T14:37:32.561Z,10.45
2022-11-22T14:40:08.630Z,11.73
2022-11-22T14:42:35.801Z,11.40
2022-11-22T14:45:46.077Z,5.05
2022-11-22T14:48:19.715Z,8.07
2022-11-22T14:51:14.981Z,7.10
2022-11-22T14:53:53.076Z,6.13
2022-11-22T14:56:25.215Z,5.97
2022-11-22T14:58:52.275Z,8.82
2022-11-22T15:01:36.104Z,7.70
2022-11-22T15:09:10.681Z,5.10
2022-11-22T15:09:21.291Z,7.32
2022-11-22T15:10:59.667Z,5.72
2022-11-22T15:14:10.532Z,22.33
2022-11-22T15:57:32.740Z,15.55
2022-11-22T16:00:00.907Z,32.25
2022-11-22T16:02:30.834Z,46.28
2022-11-22T16:06:10.443Z,48.67
2022-11-22T16:07:55.992Z,29.73
2022-11-22T16:10:37.674Z,45.97
2022-11-22T16:13:20.228Z,27.80
2022-11-22T16:18:33.169Z,14.57
2022-11-22T16:21:02.287Z,12.65
2022-11-22T16:23:31.824Z,17.90
2022-11-22T16:26:34.743Z,18.50
2022-11-22T16:29:26.325Z,19.35
2022-11-22T16:32:19.924Z,82.43
2022-11-22T16:34:51.579Z,39.83
2022-11-22T16:37:38.233Z,34.85
2022-11-22T16:40:07.443Z,20.55
2022-11-22T16:42:38.006Z,23.75
2022-11-22T16:45:06.653Z,17.00
2022-11-22T16:47:33.721Z,9.20
2022-11-22T16:50:00.807Z,9.85
2022-11-22T16:52:27.853Z,6.75
2022-11-22T16:54:54.940Z,5.05
2022-11-22T16:57:22.091Z,9.68
2022-11-22T16:59:49.175Z,8.25
2022-11-22T17:02:17.465Z,9.18
2022-11-22T17:04:46.093Z,4.43
2022-11-22T17:07:14.675Z,8.27
2022-11-22T17:09:42.094Z,10.23
2022-11-22T17:12:23.386Z,13.77
2022-11-22T17:14:51.922Z,15.23
2022-11-22T17:17:20.491Z,15.10
2022-11-22T17:19:55.405Z,18.13
2022-11-22T17:22:22.601Z,23.70
2022-11-22T17:24:49.678Z,29.50
2022-11-22T17:27:16.859Z,19.45
2022-11-22T17:29:51.481Z,28.38
2022-11-22T17:32:19.793Z,26.13
2022-11-22T17:34:47.029Z,24.95
2022-11-22T17:37:14.223Z,16.77
2022-11-22T17:39:41.555Z,20.58
2022-11-22T17:42:08.778Z,30.33
2022-11-22T17:44:35.886Z,29.20
2022-11-22T17:47:03.014Z,27.45
2022-11-22T17:49:30.545Z,19.75
2022-11-22T17:51:57.966Z,12.60
2022-11-22T17:54:25.088Z,12.38
2022-11-22T17:56:52.339Z,9.82
2022-11-22T17:59:19.411Z,15.63
2022-11-22T18:01:46.482Z,13.65
2022-11-22T18:04:14.716Z,22.80
2022-11-22T18:06:41.919Z,14.05
2022-11-22T18:09:09.221Z,13.02
2022-11-22T18:11:36.388Z,8.75
2022-11-22T18:14:03.691Z,20.85
2022-11-22T18:16:31.298Z,22.10
2022-11-22T18:18:59.313Z,12.20
2022-11-22T18:21:29.553Z,80.40
2022-11-22T18:23:58.686Z,59.33
2022-11-22T18:26:42.251Z,41.45
2022-11-22T18:31:59.743Z,20.23
2022-11-22T18:34:27.960Z,12.68
2022-11-22T18:37:02.603Z,19.60
2022-11-22T18:39:37.039Z,12.68
2022-11-22T18:42:06.051Z,12.02
2022-11-22T18:44:33.778Z,13.30
2022-11-22T18:47:01.167Z,15.90
2022-11-22T18:49:28.290Z,10.15
2022-11-22T18:51:56.003Z,13.57
2022-11-22T18:54:23.501Z,16.27
2022-11-22T18:56:53.970Z,12.23
2022-11-22T18:59:21.369Z,46.33
2022-11-22T19:01:48.570Z,26.75
2022-11-22T19:04:16.198Z,18.05
2022-11-22T19:06:44.248Z,12.10
2022-11-22T19:09:11.477Z,11.52
2022-11-22T19:11:39.024Z,13.52
2022-11-22T19:14:06.487Z,9.65
2022-11-22T19:16:33.739Z,10.80
2022-11-22T19:19:00.893Z,11.55
2022-11-22T19:21:29.836Z,14.50
2022-11-22T19:23:57.431Z,12.10
2022-11-22T19:26:26.663Z,10.13
2022-11-22T19:28:56.162Z,8.35
2022-11-22T19:31:29.169Z,9.57
2022-11-22T19:33:57.259Z,9.70
2022-11-22T19:36:32.293Z,9.95
2022-11-22T19:39:00.394Z,8.15
2022-11-22T19:41:27.569Z,7.00
2022-11-22T19:43:56.269Z,5.25
2022-11-22T19:46:24.518Z,8.77
2022-11-22T19:48:53.080Z,14.25
2022-11-22T19:51:21.052Z,14.40
2022-11-22T19:53:48.681Z,15.55
2022-11-22T19:56:18.147Z,12.60
2022-11-22T19:58:50.873Z,10.50
2022-11-22T20:01:18.821Z,10.95
2022-11-22T20:03:46.059Z,10.40
2022-11-22T20:06:14.421Z,9.68
2022-11-22T20:08:41.692Z,11.55
2022-11-22T20:11:11.804Z,10.18
2022-11-22T20:13:41.517Z,11.63
2022-11-22T20:16:11.473Z,14.02
2022-11-22T20:18:38.669Z,8.20
2022-11-22T20:21:09.191Z,22.23
2022-11-22T20:23:36.795Z,92.65
2022-11-22T20:26:15.130Z,57.00
2022-11-22T20:28:44.175Z,44.30
2022-11-22T20:31:16.947Z,67.97
2022-11-22T20:33:46.724Z,49.83
2022-11-22T20:36:20.395Z,57.38
2022-11-22T20:38:49.380Z,33.70
2022-11-22T20:41:18.691Z,119.82
2022-11-22T20:43:46.260Z,56.40
2022-11-22T20:46:22.093Z,35.03
2022-11-22T20:48:49.653Z,23.15
2022-11-22T20:51:23.911Z,20.20
2022-11-22T20:53:51.564Z,16.08
2022-11-22T20:56:19.231Z,15.93
2022-11-22T20:58:46.700Z,13.48
2022-11-22T21:01:27.286Z,12.98
2022-11-22T21:03:55.456Z,9.95
2022-11-22T21:06:24.192Z,7.63
2022-11-22T21:08:51.438Z,6.57
2022-11-22T21:11:22.325Z,8.32
2022-11-22T21:13:50.275Z,8.82
2022-11-22T21:16:23.758Z,10.77
2022-11-22T21:18:58.403Z,6.93
2022-11-22T21:21:26.100Z,9.77
2022-11-22T21:23:55.470Z,9.75
2022-11-22T21:26:24.423Z,11.05
2022-11-22T21:28:52.779Z,9.32
2022-11-22T21:31:21.306Z,8.63
2022-11-22T21:33:49.097Z,6.07
2022-11-22T21:36:16.419Z,6.32
2022-11-22T21:38:43.577Z,6.35
2022-11-22T21:44:06.517Z,9.23
2022-11-22T21:46:33.628Z,6.60
2022-11-22T21:49:00.755Z,7.25
2022-11-22T21:51:27.906Z,6.70
2022-11-22T21:53:58.929Z,6.43
2022-11-22T21:56:27.072Z,7.32
2022-11-22T21:58:54.804Z,6.57
2022-11-22T22:01:22.545Z,7.22
2022-11-22T22:03:49.969Z,9.00
2022-11-22T22:06:17.154Z,6.00
2022-11-22T22:08:44.425Z,5.25
2022-11-22T22:11:12.471Z,6.78
2022-11-22T22:13:39.659Z,6.78
2022-11-22T22:16:07.343Z,9.40
2022-11-22T22:18:36.882Z,7.90
2022-11-22T22:21:07.277Z,7.85
2022-11-22T22:23:35.711Z,9.70
2022-11-22T22:26:05.080Z,7.70
2022-11-22T22:28:35.261Z,11.18
2022-11-22T22:31:09.573Z,7.90
2022-11-22T22:33:39.101Z,11.05
2022-11-22T22:36:07.269Z,8.15
2022-11-22T22:38:34.922Z,9.85
2022-11-22T22:41:03.506Z,6.20
2022-11-22T22:43:36.469Z,6.70
2022-11-22T22:46:06.724Z,10.32
2022-11-22T22:48:34.666Z,9.30
2022-11-22T22:51:19.671Z,9.98
2022-11-22T22:53:47.527Z,9.25
2022-11-22T22:56:17.272Z,9.80
2022-11-22T22:58:44.907Z,12.07
2022-11-22T23:01:15.008Z,13.63
2022-11-22T23:03:42.143Z,8.38
2022-11-22T23:06:11.530Z,7.35
2022-11-22T23:08:39.552Z,8.50
2022-11-22T23:11:08.937Z,11.98
2022-11-22T23:13:38.336Z,11.70
2022-11-22T23:16:07.522Z,7.10
2022-11-22T23:18:36.476Z,10.15
2022-11-22T23:21:05.733Z,8.25
2022-11-22T23:23:33.733Z,8.95
2022-11-22T23:26:09.313Z,11.07
2022-11-22T23:28:39.770Z,6.40
2022-11-22T23:31:08.742Z,9.23
2022-11-22T23:33:36.401Z,10.88
2022-11-22T23:36:12.052Z,12.07
2022-11-22T23:38:39.646Z,10.40
2022-11-22T23:41:06.872Z,7.20
2022-11-22T23:43:34.017Z,8.63
2022-11-22T23:46:01.101Z,7.13
2022-11-22T23:48:28.383Z,8.40
2022-11-22T23:50:55.572Z,5.43
2022-11-22T23:53:22.719Z,5.25
2022-11-22T23:55:49.876Z,6.05
2022-11-22T23:58:17.022Z,6.32
